Park Ridge, Illinois
Current Conditions -  °F | °C
As of 7:51 AM on Thursday 30 Oct 2014 (Local Time) from KORD Reporting Station
Broken Clouds Broken Clouds  
Wind Chill: 34°   Ceiling: 25000
Heat Index: 34°   Visibility: 10mi
Dew Point: 31°   Wind: 0mph
Humidity: 89%   Direction: NA
Pressure: 30.13"   Gusts: NA
Location:  42.01°N, 87.83°W
Report Text: KORD 301251Z 00000KT 10SM SCT160 BKN250 01/M01 A3013 RMK AO2 SLP209 T00111006
Loading
Personal Weather Stations






























Interactive Weather Map
Tropical Storm Tracking
New forecast layout! Learn more

10-Day Weather Forecast

Advertisements
Track Severe Weather on mobile